Time;durP1;ratioP1;P1;durP2;ratioP2;P2;SDS_P1;SDS_P2;PMS_P1;PMS_P2;Temp;Humidity;BMP_temperature;BMP_pressure;BME280_temperature;BME280_humidity;BME280_pressure;Samples;Min_cycle;Max_cycle;Signal;HPM_P1;HPM_P2
2022/03/16 00:02:24;;;;;;;25.80;16.30;;;8.50;99.90;;;;;;5004955;28;20691;-68
2022/03/16 00:04:52;;;;;;;23.90;14.50;;;8.50;99.90;;;;;;5007665;28;20029;-68
2022/03/16 00:07:18;;;;;;;24.63;14.70;;;8.50;99.90;;;;;;5002438;28;20036;-67
2022/03/16 00:09:45;;;;;;;20.80;13.07;;;8.40;99.90;;;;;;5008572;28;20117;-68
2022/03/16 00:12:12;;;;;;;22.15;12.10;;;8.40;99.90;;;;;;5007084;28;20383;-68
2022/03/16 00:14:38;;;;;;;24.40;12.52;;;8.50;99.90;;;;;;5008549;28;20030;-68
2022/03/16 00:17:05;;;;;;;21.98;12.30;;;8.50;99.90;;;;;;5003981;28;20087;-68
2022/03/16 00:19:31;;;;;;;25.33;13.13;;;8.50;99.90;;;;;;5004918;28;20032;-68
2022/03/16 00:21:57;;;;;;;;;;;8.50;99.90;;;;;;5003161;28;20033;-68
2022/03/16 00:24:23;;;;;;;23.67;13.13;;;8.50;99.90;;;;;;5010002;28;19928;-69
2022/03/16 00:26:49;;;;;;;24.57;13.00;;;8.50;99.90;;;;;;5005353;28;20022;-68
2022/03/16 00:29:15;;;;;;;22.57;11.93;;;8.50;99.90;;;;;;5001623;28;20937;-68
2022/03/16 00:31:40;;;;;;;23.93;11.37;;;8.50;99.90;;;;;;5008028;28;20459;-68
2022/03/16 00:34:06;;;;;;;26.20;12.17;;;8.50;99.90;;;;;;5007553;28;20022;-68
2022/03/16 00:36:32;;;;;;;25.87;12.30;;;8.70;99.90;;;;;;5001666;28;20029;-68
2022/03/16 00:38:57;;;;;;;22.50;10.97;;;8.70;99.90;;;;;;5002496;28;20021;-68
2022/03/16 00:41:23;;;;;;;22.93;11.13;;;8.80;99.90;;;;;;5006997;28;20030;-68
2022/03/16 00:43:49;;;;;;;19.83;10.73;;;8.90;99.90;;;;;;5006871;28;20018;-68
2022/03/16 00:46:15;;;;;;;19.80;10.03;;;8.90;99.90;;;;;;5031870;28;20025;-68
2022/03/16 00:48:40;;;;;;;16.97;9.30;;;9.00;99.90;;;;;;5002608;28;20030;-68
2022/03/16 00:51:06;;;;;;;18.13;9.47;;;9.10;99.90;;;;;;5001496;28;20671;-68
2022/03/16 00:53:34;;;;;;;23.33;10.43;;;9.20;99.90;;;;;;5011622;28;20029;-68
2022/03/16 00:56:01;;;;;;;20.80;9.60;;;9.30;99.90;;;;;;5009129;28;20064;-68
2022/03/16 00:58:27;;;;;;;21.15;8.75;;;9.40;99.90;;;;;;5013000;28;20029;-68
2022/03/16 01:00:53;;;;;;;25.00;8.60;;;9.40;99.90;;;;;;5008059;28;20017;-68
2022/03/16 01:03:19;;;;;;;20.03;8.03;;;9.50;99.90;;;;;;5005273;28;20075;-68
2022/03/16 01:05:46;;;;;;;26.80;8.43;;;9.50;99.90;;;;;;5003468;28;20022;-68
2022/03/16 01:08:12;;;;;;;19.65;7.40;;;9.60;99.90;;;;;;5005835;28;20022;-68
2022/03/16 01:10:39;;;;;;;19.38;8.85;;;9.70;99.90;;;;;;5006669;28;20021;-68
2022/03/16 01:13:06;;;;;;;17.40;7.68;;;9.70;99.90;;;;;;5010294;28;20025;-68
2022/03/16 01:15:31;;;;;;;15.80;7.15;;;9.80;99.90;;;;;;5012806;28;20069;-68
2022/03/16 01:17:57;;;;;;;21.03;7.40;;;9.80;99.90;;;;;;5005299;28;20113;-68
2022/03/16 01:20:23;;;;;;;21.27;7.87;;;9.90;99.90;;;;;;5010262;28;20089;-68
2022/03/16 01:22:49;;;;;;;14.77;7.30;;;9.80;99.90;;;;;;5011051;28;20037;-68
2022/03/16 01:25:14;;;;;;;19.63;6.97;;;9.80;99.90;;;;;;5007732;28;20030;-68
2022/03/16 01:27:40;;;;;;;17.63;7.20;;;9.80;99.90;;;;;;5010800;28;20033;-68
2022/03/16 01:30:07;;;;;;;11.93;7.18;;;9.90;99.90;;;;;;5011693;28;20730;-68
2022/03/16 01:32:32;;;;;;;18.35;7.63;;;9.90;99.90;;;;;;5014190;28;20037;-68
2022/03/16 01:34:58;;;;;;;14.90;7.67;;;9.90;99.90;;;;;;5005134;28;20052;-68
2022/03/16 01:37:24;;;;;;;15.07;8.03;;;9.90;99.90;;;;;;5010866;28;20060;-68
2022/03/16 01:39:50;;;;;;;15.87;7.90;;;9.80;99.90;;;;;;5009959;28;20041;-68
2022/03/16 01:42:15;;;;;;;20.90;8.97;;;9.80;99.90;;;;;;5006271;28;20021;-68
2022/03/16 01:44:41;;;;;;;22.17;8.47;;;9.80;99.90;;;;;;5009731;28;20006;-68
2022/03/16 01:47:07;;;;;;;15.60;8.53;;;9.80;99.90;;;;;;5004874;28;20874;-68
2022/03/16 01:49:32;;;;;;;19.93;8.10;;;9.70;99.90;;;;;;5006953;28;20029;-68
2022/03/16 01:51:58;;;;;;;16.93;8.57;;;9.70;99.90;;;;;;5005763;28;20579;-68
2022/03/16 01:54:24;;;;;;;13.10;8.47;;;9.60;99.90;;;;;;5006501;28;20128;-68
2022/03/16 01:56:49;;;;;;;14.87;8.57;;;9.50;99.90;;;;;;5008805;28;20025;-68
2022/03/16 01:59:15;;;;;;;16.13;9.80;;;9.50;99.90;;;;;;5006046;28;20029;-68
2022/03/16 02:01:41;;;;;;;16.03;9.70;;;9.50;99.90;;;;;;5008503;28;20468;-68
2022/03/16 02:04:06;;;;;;;20.37;10.17;;;9.50;99.90;;;;;;5001035;28;20038;-68
2022/03/16 02:06:32;;;;;;;16.97;9.43;;;9.50;99.90;;;;;;5006609;28;20370;-69
2022/03/16 02:08:58;;;;;;;14.40;9.27;;;9.50;99.90;;;;;;5007927;28;20087;-68
2022/03/16 02:11:24;;;;;;;14.47;9.10;;;9.60;99.90;;;;;;5012125;28;20260;-68
2022/03/16 02:13:50;;;;;;;19.37;9.50;;;9.60;99.90;;;;;;5011507;28;20072;-68
2022/03/16 02:16:15;;;;;;;12.98;9.50;;;9.60;99.90;;;;;;5007095;28;20060;-68
2022/03/16 02:18:41;;;;;;;16.43;9.63;;;9.60;99.90;;;;;;5005655;28;20058;-68
2022/03/16 02:21:07;;;;;;;15.10;8.83;;;9.60;99.90;;;;;;5003888;28;20018;-68
2022/03/16 02:23:32;;;;;;;16.87;8.80;;;9.70;99.90;;;;;;5005534;28;20034;-68
2022/03/16 02:25:58;;;;;;;18.43;8.63;;;9.70;99.90;;;;;;5001966;28;20114;-68
2022/03/16 02:28:25;;;;;;;16.43;8.73;;;9.60;99.90;;;;;;5011328;28;20697;-68
2022/03/16 02:30:51;;;;;;;18.02;8.98;;;9.60;99.90;;;;;;5011896;28;20495;-68
2022/03/16 02:33:17;;;;;;;16.95;8.23;;;9.60;99.90;;;;;;5004394;28;20071;-68
2022/03/16 02:35:42;;;;;;;15.47;9.13;;;9.50;99.90;;;;;;5010836;28;20021;-68
2022/03/16 02:38:08;;;;;;;14.40;8.97;;;9.50;99.90;;;;;;5000034;28;20867;-68
2022/03/16 02:40:34;;;;;;;12.50;8.17;;;9.50;99.90;;;;;;5006043;28;20024;-68
2022/03/16 02:43:00;;;;;;;13.97;9.07;;;9.40;99.90;;;;;;5006684;28;20021;-70
2022/03/16 02:45:26;;;;;;;13.20;8.70;;;9.30;99.90;;;;;;5005280;28;20741;-68
2022/03/16 02:47:52;;;;;;;14.17;8.70;;;9.30;99.90;;;;;;5013790;28;20030;-68
2022/03/16 02:50:18;;;;;;;14.73;8.70;;;9.20;99.90;;;;;;5010338;28;20391;-68
2022/03/16 02:52:45;;;;;;;16.50;9.27;;;9.20;99.90;;;;;;5008289;28;20025;-68
2022/03/16 02:55:12;;;;;;;17.15;9.07;;;9.10;99.90;;;;;;5009070;28;20025;-68
2022/03/16 02:57:38;;;;;;;16.60;10.07;;;9.20;99.90;;;;;;5003701;28;20479;-68
2022/03/16 03:00:05;;;;;;;11.70;8.07;;;9.20;99.90;;;;;;5004245;28;20029;-68
2022/03/16 03:02:31;;;;;;;12.98;8.40;;;9.20;99.90;;;;;;5012009;28;20041;-68
2022/03/16 03:04:57;;;;;;;17.47;8.93;;;9.20;99.90;;;;;;5004752;28;20483;-69
2022/03/16 03:07:22;;;;;;;16.67;9.80;;;9.30;99.90;;;;;;5008545;28;20048;-68
2022/03/16 03:09:49;;;;;;;17.63;10.60;;;9.30;99.90;;;;;;5008767;28;20161;-68
2022/03/16 03:12:15;;;;;;;16.17;9.18;;;9.20;99.90;;;;;;5011123;28;20376;-68
2022/03/16 03:14:41;;;;;;;15.68;10.38;;;9.20;99.90;;;;;;5011700;28;20456;-68
2022/03/16 03:17:06;;;;;;;20.80;10.00;;;9.20;99.90;;;;;;5007410;28;20457;-69
2022/03/16 03:19:33;;;;;;;14.67;9.97;;;9.30;99.90;;;;;;5004384;28;20029;-68
2022/03/16 03:21:59;;;;;;;15.13;9.88;;;9.30;99.90;;;;;;4999388;28;20044;-69
2022/03/16 03:24:24;;;;;;;16.65;10.40;;;9.40;99.90;;;;;;5002521;28;20108;-68
2022/03/16 03:26:50;;;;;;;16.43;11.07;;;9.40;99.90;;;;;;5009461;28;20138;-68
2022/03/16 03:29:16;;;;;;;18.47;11.80;;;9.40;99.90;;;;;;5010378;28;20029;-68
2022/03/16 03:31:42;;;;;;;17.90;10.80;;;9.30;99.90;;;;;;5011564;28;20551;-68
2022/03/16 03:34:08;;;;;;;15.80;10.18;;;9.30;99.90;;;;;;5006893;28;20021;-68
2022/03/16 03:36:34;;;;;;;15.37;10.40;;;9.30;99.90;;;;;;5005126;28;20052;-68
2022/03/16 03:39:00;;;;;;;14.23;9.53;;;9.20;99.90;;;;;;5005933;28;20607;-68
2022/03/16 03:41:25;;;;;;;14.00;9.33;;;9.20;99.90;;;;;;5005505;28;20040;-68
2022/03/16 03:43:51;;;;;;;11.93;8.53;;;9.20;99.90;;;;;;5008688;28;20030;-68
2022/03/16 03:46:17;;;;;;;13.07;9.00;;;9.20;99.90;;;;;;5010296;28;20029;-68
2022/03/16 03:48:43;;;;;;;12.07;8.03;;;9.20;99.90;;;;;;5009453;28;20018;-68
2022/03/16 03:51:08;;;;;;;11.53;7.87;;;9.20;99.90;;;;;;5007189;28;20069;-68
2022/03/16 03:53:34;;;;;;;11.63;7.67;;;9.20;99.90;;;;;;5002783;28;20088;-68
2022/03/16 03:56:00;;;;;;;11.03;7.37;;;9.10;99.90;;;;;;5010749;28;20038;-68
2022/03/16 03:58:26;;;;;;;9.93;7.27;;;9.20;99.90;;;;;;5010728;28;20026;-68
2022/03/16 04:00:52;;;;;;;11.13;7.23;;;9.20;99.90;;;;;;4997499;28;20033;-68
2022/03/16 04:03:18;;;;;;;11.38;7.43;;;9.20;99.90;;;;;;5004968;28;20033;-68
2022/03/16 04:05:44;;;;;;;10.37;7.23;;;9.20;99.90;;;;;;5007353;28;20119;-68
2022/03/16 04:08:10;;;;;;;12.90;7.83;;;9.20;99.90;;;;;;5011570;28;20252;-68
2022/03/16 04:10:36;;;;;;;13.47;7.70;;;9.20;99.90;;;;;;5007855;28;20267;-68
2022/03/16 04:13:05;;;;;;;9.02;6.38;;;9.20;99.90;;;;;;5006314;28;20034;-68
2022/03/16 04:15:32;;;;;;;10.43;6.55;;;9.20;99.90;;;;;;5004178;28;20036;-68
2022/03/16 04:17:59;;;;;;;9.40;6.70;;;9.30;99.90;;;;;;5008818;28;20029;-68
2022/03/16 04:20:25;;;;;;;11.38;6.57;;;9.20;99.90;;;;;;5003517;28;20018;-68
2022/03/16 04:22:51;;;;;;;7.80;5.70;;;9.20;99.90;;;;;;5004399;28;20026;-68
2022/03/16 04:25:16;;;;;;;10.07;6.00;;;9.20;99.90;;;;;;5003813;28;20326;-68
2022/03/16 04:27:42;;;;;;;8.03;5.37;;;9.20;99.90;;;;;;5007596;28;20084;-68
2022/03/16 04:30:08;;;;;;;6.10;4.53;;;9.20;99.90;;;;;;5008883;28;20457;-68
2022/03/16 04:32:34;;;;;;;8.98;5.78;;;9.20;99.90;;;;;;5010266;28;20029;-69
2022/03/16 04:34:59;;;;;;;8.43;5.53;;;9.20;99.90;;;;;;5014307;28;20043;-68
2022/03/16 04:37:25;;;;;;;7.63;5.63;;;9.20;99.90;;;;;;5012712;28;20021;-68
2022/03/16 04:39:51;;;;;;;8.47;5.57;;;9.20;99.90;;;;;;5004167;28;20946;-68
2022/03/16 04:42:17;;;;;;;8.35;5.78;;;9.20;99.90;;;;;;5006460;28;20032;-68
2022/03/16 04:44:42;;;;;;;8.50;5.73;;;9.10;99.90;;;;;;5005342;28;20025;-68
2022/03/16 04:47:08;;;;;;;8.10;5.67;;;9.10;99.90;;;;;;5010504;28;20034;-68
2022/03/16 04:49:34;;;;;;;10.20;6.67;;;9.00;99.90;;;;;;5009866;28;20026;-68
2022/03/16 04:51:59;;;;;;;10.47;6.50;;;9.00;99.90;;;;;;5009591;28;20033;-68
2022/03/16 04:54:25;;;;;;;10.53;7.20;;;8.90;99.90;;;;;;5008715;28;20113;-68
2022/03/16 04:56:51;;;;;;;11.77;7.30;;;8.90;99.90;;;;;;5009306;28;20491;-68
2022/03/16 04:59:17;;;;;;;10.97;7.60;;;8.80;99.90;;;;;;5009163;28;20026;-68
2022/03/16 05:01:43;;;;;;;13.63;8.18;;;8.80;99.90;;;;;;5011755;28;20018;-68
2022/03/16 05:04:08;;;;;;;11.13;7.47;;;8.90;99.90;;;;;;5014002;28;20060;-68
2022/03/16 05:06:34;;;;;;;11.33;7.73;;;8.90;99.90;;;;;;5004915;28;20292;-68
2022/03/16 05:09:00;;;;;;;13.40;8.87;;;8.80;99.90;;;;;;5011705;28;20025;-68
2022/03/16 05:11:25;;;;;;;12.73;8.90;;;8.80;99.90;;;;;;5009937;28;20029;-68
2022/03/16 05:13:51;;;;;;;12.77;8.53;;;8.80;99.90;;;;;;5004210;28;20708;-67
2022/03/16 05:16:17;;;;;;;15.00;8.87;;;8.80;99.90;;;;;;5013771;28;20022;-68
2022/03/16 05:18:45;;;;;;;13.57;8.50;;;8.90;99.90;;;;;;5007093;28;20518;-68
2022/03/16 05:21:12;;;;;;;13.73;8.93;;;8.80;99.90;;;;;;5010994;28;20014;-68
2022/03/16 05:23:38;;;;;;;12.57;8.90;;;8.80;99.90;;;;;;5009384;28;20021;-68
2022/03/16 05:26:04;;;;;;;15.05;9.95;;;8.80;99.90;;;;;;5003820;28;20993;-68
2022/03/16 05:28:31;;;;;;;14.05;9.80;;;8.70;99.90;;;;;;5005636;28;20534;-68
2022/03/16 05:30:56;;;;;;;14.90;9.27;;;8.70;99.90;;;;;;5003450;28;20022;-68
2022/03/16 05:33:23;;;;;;;13.43;8.63;;;8.80;99.90;;;;;;5009491;28;20514;-68
2022/03/16 05:35:50;;;;;;;15.63;9.65;;;8.80;99.90;;;;;;5005017;28;20037;-68
2022/03/16 05:38:16;;;;;;;13.88;9.27;;;8.70;99.90;;;;;;5005070;28;20037;-68
2022/03/16 05:40:42;;;;;;;14.17;9.90;;;8.70;99.90;;;;;;5003089;28;20030;-68
2022/03/16 05:43:10;;;;;;;15.13;9.63;;;8.70;99.90;;;;;;5004956;28;21473;-68
2022/03/16 05:45:36;;;;;;;17.30;11.85;;;8.80;99.90;;;;;;5005082;28;20029;-68
2022/03/16 05:48:02;;;;;;;16.48;11.00;;;8.70;99.90;;;;;;5011244;28;20170;-69
2022/03/16 05:50:28;;;;;;;16.48;11.60;;;8.70;99.90;;;;;;5008690;28;20036;-68
2022/03/16 05:52:56;;;;;;;16.50;11.20;;;8.70;99.90;;;;;;5001427;28;20025;-68
2022/03/16 05:55:21;;;;;;;16.30;11.18;;;8.70;99.90;;;;;;5005218;28;20091;-68
2022/03/16 05:57:49;;;;;;;17.07;11.43;;;8.80;99.90;;;;;;5001454;28;20686;-68
2022/03/16 06:00:22;;;;;;;19.40;12.40;;;8.80;99.90;;;;;;5005427;28;20496;-68
2022/03/16 06:02:49;;;;;;;18.88;12.05;;;8.90;99.90;;;;;;5033885;28;20064;-68
2022/03/16 06:05:16;;;;;;;19.45;12.05;;;9.00;99.90;;;;;;5011168;28;20026;-68
2022/03/16 06:07:43;;;;;;;19.77;11.85;;;8.90;99.90;;;;;;5002054;28;20033;-69
2022/03/16 06:10:09;;;;;;;;;;;8.90;99.90;;;;;;5007724;28;20029;-68
2022/03/16 06:13:06;;;;;;;18.58;11.20;;;8.80;99.90;;;;;;5002633;28;19920;-68
2022/03/16 06:15:43;;;;;;;19.65;11.75;;;8.80;99.90;;;;;;5008704;28;20051;-68
2022/03/16 06:18:10;;;;;;;21.33;12.98;;;8.80;99.90;;;;;;5008247;28;20408;-68
2022/03/16 06:20:37;;;;;;;19.10;12.07;;;8.70;99.90;;;;;;5004056;28;20070;-68
2022/03/16 06:23:04;;;;;;;18.42;11.90;;;8.70;99.90;;;;;;5007973;28;20033;-68
2022/03/16 06:25:32;;;;;;;20.48;12.18;;;8.60;99.90;;;;;;5008928;28;20120;-70
2022/03/16 06:27:59;;;;;;;20.17;12.02;;;8.60;99.90;;;;;;5006404;28;20064;-70
2022/03/16 06:30:25;;;;;;;18.20;12.07;;;8.80;99.90;;;;;;5008447;28;20079;-68
2022/03/16 06:32:51;;;;;;;18.73;12.97;;;8.90;99.90;;;;;;5009409;28;20025;-68
2022/03/16 06:35:17;;;;;;;22.53;12.77;;;8.90;99.90;;;;;;5010310;28;20668;-68
2022/03/16 06:37:45;;;;;;;18.70;12.15;;;8.80;99.90;;;;;;5004714;28;20022;-68
2022/03/16 06:40:12;;;;;;;21.48;13.10;;;8.60;99.90;;;;;;5003442;28;20037;-69
2022/03/16 06:43:03;;;;;;;19.15;12.35;;;8.60;99.90;;;;;;5001976;28;20063;-68
2022/03/16 06:45:30;;;;;;;21.55;12.68;;;8.60;99.90;;;;;;4999614;28;20510;-68
2022/03/16 06:47:58;;;;;;;21.70;12.20;;;8.50;99.90;;;;;;5006175;28;20026;-68
2022/03/16 06:50:26;;;;;;;23.73;14.10;;;8.50;99.90;;;;;;4998922;28;20025;-68
2022/03/16 06:52:53;;;;;;;22.52;13.27;;;8.50;99.90;;;;;;5008079;28;20591;-68
2022/03/16 06:55:19;;;;;;;21.50;12.90;;;8.50;99.90;;;;;;5004653;28;20075;-68
2022/03/16 06:57:45;;;;;;;23.50;14.03;;;8.50;99.90;;;;;;5002757;28;20025;-68
2022/03/16 07:00:13;;;;;;;22.63;13.30;;;8.40;99.90;;;;;;5008450;28;20022;-68
2022/03/16 07:02:57;;;;;;;21.52;12.38;;;8.40;99.90;;;;;;5034130;28;20033;-68
2022/03/16 07:05:38;;;;;;;20.23;12.63;;;8.40;99.90;;;;;;5002117;28;20014;-68
2022/03/16 07:08:07;;;;;;;19.30;11.45;;;8.30;99.90;;;;;;5003573;28;20052;-68
2022/03/16 07:10:35;;;;;;;20.65;13.02;;;8.30;99.90;;;;;;5040212;28;20396;-68
2022/03/16 07:13:02;;;;;;;21.35;12.55;;;8.30;99.90;;;;;;5004496;28;20095;-69
2022/03/16 07:15:32;;;;;;;20.40;12.75;;;8.30;99.90;;;;;;5006544;28;20018;-68
2022/03/16 07:18:01;;;;;;;22.38;12.98;;;8.30;99.90;;;;;;5005360;28;20029;-68
2022/03/16 07:20:28;;;;;;;23.17;12.88;;;8.30;99.90;;;;;;5011791;28;20631;-68
2022/03/16 07:23:04;;;;;;;19.20;13.20;;;8.30;99.90;;;;;;5004289;28;20021;-68
2022/03/16 07:25:30;;;;;;;20.08;12.73;;;8.30;99.90;;;;;;5032754;28;20061;-68
2022/03/16 07:27:56;;;;;;;20.38;12.48;;;8.40;99.90;;;;;;5005149;28;20021;-68
2022/03/16 07:30:23;;;;;;;23.23;12.85;;;8.40;99.90;;;;;;5006715;28;20104;-70
2022/03/16 07:32:49;;;;;;;22.87;12.40;;;8.50;99.90;;;;;;5000170;28;20046;-68
2022/03/16 07:35:14;;;;;;;20.73;12.60;;;8.50;99.90;;;;;;5006921;28;20025;-68
2022/03/16 07:37:42;;;;;;;21.20;13.20;;;8.60;99.90;;;;;;5005297;28;20052;-68
2022/03/16 07:40:09;;;;;;;23.08;13.00;;;8.60;99.90;;;;;;5005714;28;20029;-68
2022/03/16 07:42:35;;;;;;;;;;;8.60;99.90;;;;;;5039150;28;20081;-71
2022/03/16 07:45:01;;;;;;;22.40;13.52;;;8.70;99.90;;;;;;5000631;28;20123;-69
2022/03/16 07:47:26;;;;;;;22.60;13.43;;;8.60;99.90;;;;;;5005233;28;20021;-68
2022/03/16 07:49:57;;;;;;;22.17;13.87;;;8.70;99.90;;;;;;4998914;28;20034;-68
2022/03/16 07:52:26;;;;;;;21.13;13.27;;;8.70;99.90;;;;;;5006594;28;20025;-68
2022/03/16 07:54:52;;;;;;;21.25;13.57;;;8.70;99.90;;;;;;5035202;28;20041;-68
2022/03/16 07:57:17;;;;;;;20.43;12.77;;;8.60;99.90;;;;;;5007151;28;20023;-68
2022/03/16 07:59:43;;;;;;;22.30;13.57;;;8.60;99.90;;;;;;4999225;28;20532;-69
2022/03/16 08:02:10;;;;;;;22.67;13.87;;;8.60;99.90;;;;;;5006175;28;20462;-68
2022/03/16 08:04:37;;;;;;;21.15;13.27;;;8.50;99.90;;;;;;5007010;28;20314;-68
2022/03/16 08:07:03;;;;;;;21.60;13.63;;;8.50;99.90;;;;;;5002060;28;20041;-68
2022/03/16 08:09:28;;;;;;;23.83;14.40;;;8.40;99.90;;;;;;5010686;28;20106;-68
2022/03/16 08:11:54;;;;;;;23.50;14.40;;;8.30;99.90;;;;;;5004958;28;20032;-68
2022/03/16 08:14:23;;;;;;;24.67;14.77;;;8.30;99.90;;;;;;5010325;28;20034;-69
2022/03/16 08:16:48;;;;;;;21.50;13.48;;;8.30;99.90;;;;;;5002988;28;20020;-69
2022/03/16 08:19:15;;;;;;;23.77;13.60;;;8.30;99.90;;;;;;5004775;28;20378;-67
2022/03/16 08:21:40;;;;;;;23.40;14.82;;;8.30;99.90;;;;;;5006665;28;20093;-68
2022/03/16 08:24:06;;;;;;;22.57;14.10;;;8.40;99.90;;;;;;5001330;28;20130;-68
2022/03/16 08:26:32;;;;;;;22.00;13.40;;;8.40;99.90;;;;;;5004472;28;20018;-68
2022/03/16 08:28:57;;;;;;;22.40;14.20;;;8.50;99.90;;;;;;5002850;28;20038;-68
2022/03/16 08:31:23;;;;;;;25.43;15.50;;;8.50;99.90;;;;;;5008538;28;20495;-68
2022/03/16 08:33:49;;;;;;;24.97;15.27;;;8.50;99.90;;;;;;5004437;28;20367;-68
2022/03/16 08:36:15;;;;;;;22.90;15.00;;;8.50;99.90;;;;;;5005158;28;20030;-68
2022/03/16 08:38:41;;;;;;;23.27;14.52;;;8.60;99.90;;;;;;5039362;28;20029;-68
2022/03/16 08:41:08;;;;;;;24.58;15.88;;;8.60;99.90;;;;;;5004028;28;20030;-68
2022/03/16 08:43:34;;;;;;;27.83;15.57;;;8.60;99.90;;;;;;5004243;28;21119;-69
2022/03/16 08:46:00;;;;;;;25.55;16.40;;;8.60;99.90;;;;;;5007257;28;20022;-68
2022/03/16 08:48:27;;;;;;;26.52;16.13;;;8.70;99.90;;;;;;5002288;28;20077;-68
2022/03/16 08:50:53;;;;;;;26.75;16.15;;;8.70;99.90;;;;;;5003458;28;20756;-68
2022/03/16 08:53:19;;;;;;;26.45;15.80;;;8.80;99.90;;;;;;4998197;28;20034;-69
2022/03/16 08:55:45;;;;;;;25.53;16.10;;;8.80;99.90;;;;;;5004521;28;20091;-68
2022/03/16 08:58:13;;;;;;;33.53;21.23;;;8.90;99.90;;;;;;5001615;28;20029;-68
2022/03/16 09:00:41;;;;;;;29.88;16.45;;;9.00;99.90;;;;;;5004299;28;20118;-68
2022/03/16 09:03:06;;;;;;;26.67;16.63;;;9.10;99.90;;;;;;5007440;28;20056;-68
2022/03/16 09:05:32;;;;;;;25.33;16.23;;;9.20;99.90;;;;;;5033028;28;20115;-68
2022/03/16 09:07:58;;;;;;;24.98;16.17;;;9.30;99.90;;;;;;5004021;28;20080;-68
2022/03/16 09:10:24;;;;;;;24.10;15.73;;;9.40;99.90;;;;;;5003619;28;20030;-69
2022/03/16 09:12:49;;;;;;;25.77;16.43;;;9.40;99.90;;;;;;5005453;28;20028;-69
2022/03/16 09:15:15;;;;;;;24.80;16.80;;;9.30;99.90;;;;;;5005331;28;20031;-68
2022/03/16 09:17:41;;;;;;;25.57;16.07;;;9.30;99.90;;;;;;5008929;28;20025;-68
2022/03/16 09:20:07;;;;;;;27.60;16.17;;;9.30;99.90;;;;;;5000279;28;20573;-68
2022/03/16 09:22:33;;;;;;;29.03;17.90;;;9.30;99.90;;;;;;5012898;28;20081;-68
2022/03/16 09:24:59;;;;;;;;;;;9.20;99.90;;;;;;5002427;28;20315;-69
2022/03/16 09:27:25;;;;;;;26.13;16.15;;;9.10;99.90;;;;;;5006940;28;19999;-69
2022/03/16 09:29:53;;;;;;;29.15;17.77;;;9.10;99.90;;;;;;5007742;28;20087;-69
2022/03/16 09:32:21;;;;;;;25.25;16.75;;;9.00;99.90;;;;;;5008756;28;20022;-68
2022/03/16 09:34:48;;;;;;;26.52;17.05;;;9.00;99.90;;;;;;5032782;28;20029;-69
2022/03/16 09:37:14;;;;;;;24.38;16.48;;;9.00;99.90;;;;;;5011778;28;20100;-68
2022/03/16 09:39:40;;;;;;;28.45;16.88;;;9.00;99.90;;;;;;5014482;28;20037;-69
2022/03/16 09:42:06;;;;;;;27.77;16.27;;;9.00;99.90;;;;;;5029615;28;20029;-68
2022/03/16 09:44:32;;;;;;;31.80;17.10;;;9.00;99.90;;;;;;5011321;28;20034;-69
2022/03/16 09:46:58;;;;;;;26.30;16.63;;;8.90;99.90;;;;;;5008061;28;20036;-69
2022/03/16 09:49:27;;;;;;;24.95;16.58;;;8.90;99.90;;;;;;5014845;28;20522;-68
2022/03/16 09:51:54;;;;;;;28.48;17.85;;;8.90;99.90;;;;;;4998376;28;20034;-69
2022/03/16 09:54:21;;;;;;;27.48;17.15;;;8.90;99.90;;;;;;5011976;28;20063;-68
2022/03/16 09:56:50;;;;;;;26.92;17.92;;;8.90;99.90;;;;;;5010342;28;20033;-69
2022/03/16 09:59:16;;;;;;;25.20;16.48;;;8.80;99.90;;;;;;5007649;28;20102;-68
2022/03/16 10:01:44;;;;;;;26.65;17.17;;;8.80;99.90;;;;;;5001774;28;20349;-69
2022/03/16 10:04:10;;;;;;;27.50;16.73;;;8.80;99.90;;;;;;5005537;28;20816;-69
2022/03/16 10:06:40;;;;;;;27.93;17.63;;;8.80;99.90;;;;;;5008147;28;20026;-68
2022/03/16 10:15:10;;;;;;;30.25;18.83;;;8.90;99.90;;;;;;5006699;28;20032;-68
2022/03/16 10:17:56;;;;;;;27.50;18.55;;;8.90;99.90;;;;;;5014062;28;20087;-68
2022/03/16 10:20:29;;;;;;;26.90;18.08;;;8.90;99.90;;;;;;5010635;28;20042;-68
2022/03/16 10:23:20;;;;;;;26.15;18.27;;;8.80;99.90;;;;;;5006520;28;20038;-68
2022/03/16 10:25:52;;;;;;;28.88;17.63;;;8.80;99.90;;;;;;5005735;28;20028;-68
2022/03/16 10:28:21;;;;;;;31.48;18.48;;;8.80;99.90;;;;;;5007983;28;20025;-69
2022/03/16 10:30:57;;;;;;;28.30;18.05;;;8.80;99.90;;;;;;5006660;28;20033;-68
2022/03/16 10:33:33;;;;;;;28.05;17.92;;;8.80;99.90;;;;;;5002336;28;20529;-68
2022/03/16 10:36:17;;;;;;;28.02;18.27;;;8.70;99.90;;;;;;5001610;28;20033;-68
2022/03/16 10:38:50;;;;;;;26.60;17.05;;;8.80;99.90;;;;;;5008237;28;20029;-68
2022/03/16 10:47:26;;;;;;;27.48;18.08;;;8.80;99.90;;;;;;5004057;28;20493;-68
2022/03/16 10:50:09;;;;;;;27.02;17.35;;;8.80;99.90;;;;;;5004748;28;20032;-69
2022/03/16 10:52:36;;;;;;;28.05;17.77;;;8.80;99.90;;;;;;5008040;28;20026;-68
2022/03/16 10:55:03;;;;;;;28.13;18.23;;;8.80;99.90;;;;;;5004739;28;20034;-68
2022/03/16 10:57:30;;;;;;;27.60;17.23;;;8.80;99.90;;;;;;5035915;28;20064;-68
2022/03/16 10:59:58;;;;;;;27.77;17.63;;;8.80;99.90;;;;;;5003745;28;20121;-69
2022/03/16 11:02:29;;;;;;;27.33;18.00;;;8.90;99.90;;;;;;5007621;28;20026;-68
2022/03/16 11:04:57;;;;;;;40.33;25.67;;;9.00;99.90;;;;;;5006669;28;20036;-69
2022/03/16 11:07:25;;;;;;;26.17;16.25;;;9.00;99.90;;;;;;5005455;28;20033;-69
2022/03/16 11:09:51;;;;;;;22.73;15.45;;;9.10;99.90;;;;;;5004350;28;20029;-68
2022/03/16 11:15:05;;;;;;;21.90;13.63;;;9.10;99.90;;;;;;5001118;28;20071;-68
2022/03/16 11:17:32;;;;;;;20.30;13.85;;;9.20;99.90;;;;;;5009075;28;20034;-68
2022/03/16 11:20:00;;;;;;;23.35;16.05;;;9.20;99.90;;;;;;5035515;28;20474;-69
2022/03/16 11:22:34;;;;;;;20.05;13.75;;;9.20;99.90;;;;;;5030419;28;20030;-68
2022/03/16 11:25:03;;;;;;;18.67;13.35;;;9.20;99.90;;;;;;5001013;28;20030;-69
2022/03/16 11:27:49;;;;;;;20.83;13.68;;;9.20;99.90;;;;;;5007800;28;20624;-69
2022/03/16 11:30:29;;;;;;;18.33;12.90;;;9.30;99.90;;;;;;5007813;28;20124;-68
2022/03/16 11:33:01;;;;;;;18.15;12.75;;;9.30;99.80;;;;;;5003432;28;20760;-68
2022/03/16 11:35:35;;;;;;;20.90;13.20;;;9.50;99.70;;;;;;5002317;28;20025;-69
2022/03/16 11:38:10;;;;;;;20.45;15.75;;;9.50;99.40;;;;;;5006538;28;20737;-68
2022/03/16 11:40:56;;;;;;;20.70;13.68;;;9.50;99.40;;;;;;5003060;28;20017;-69
2022/03/16 11:43:24;;;;;;;18.48;12.75;;;9.50;99.20;;;;;;4998663;28;20033;-69
2022/03/16 11:45:57;;;;;;;16.80;12.18;;;9.60;99.20;;;;;;5005666;28;20014;-68
2022/03/16 11:48:31;;;;;;;21.90;13.13;;;9.60;99.00;;;;;;5011995;28;20026;-68
2022/03/16 11:51:11;;;;;;;17.35;12.27;;;9.60;98.80;;;;;;5006371;28;20551;-69
2022/03/16 11:53:47;;;;;;;16.95;12.18;;;9.60;99.00;;;;;;5029841;28;20095;-68
2022/03/16 11:56:36;;;;;;;17.05;11.40;;;9.50;99.10;;;;;;5005241;28;20569;-68
2022/03/16 11:59:09;;;;;;;17.90;11.95;;;9.50;99.20;;;;;;5006720;28;21142;-69
2022/03/16 12:01:39;;;;;;;16.40;12.07;;;9.50;99.30;;;;;;5008110;28;20041;-69
2022/03/16 12:04:16;;;;;;;16.63;11.63;;;9.50;99.40;;;;;;5002255;28;20022;-69
2022/03/16 12:07:12;;;;;;;22.17;11.95;;;9.50;99.00;;;;;;5007590;28;20025;-68
2022/03/16 12:09:46;;;;;;;17.00;11.15;;;9.50;99.10;;;;;;5007913;28;20079;-68
2022/03/16 12:15:20;;;;;;;15.63;9.97;;;9.70;98.50;;;;;;5002187;28;20045;-68
2022/03/16 12:17:56;;;;;;;16.38;10.13;;;9.90;98.00;;;;;;5013856;28;20407;-69
2022/03/16 12:20:32;;;;;;;18.70;11.65;;;10.00;97.70;;;;;;5009355;28;20438;-69
2022/03/16 12:23:00;;;;;;;17.25;11.90;;;10.10;97.30;;;;;;5001993;28;20021;-68
2022/03/16 12:25:29;;;;;;;16.95;10.98;;;10.20;97.10;;;;;;5033026;28;20036;-69
2022/03/16 12:30:43;;;;;;;17.48;11.48;;;10.10;97.00;;;;;;5007176;28;20084;-68
2022/03/16 12:33:22;;;;;;;20.67;11.80;;;10.00;96.90;;;;;;5002197;28;20030;-69
2022/03/16 12:35:53;;;;;;;18.63;11.75;;;9.90;97.20;;;;;;5008227;28;20681;-69
2022/03/16 12:38:21;;;;;;;19.80;12.65;;;9.80;97.40;;;;;;5004618;28;20022;-68
2022/03/16 12:43:33;;;;;;;21.00;13.43;;;9.80;97.90;;;;;;5009210;28;20036;-68
2022/03/16 12:46:32;;;;;;;19.63;12.90;;;9.90;97.80;;;;;;5002333;28;20024;-69
2022/03/16 12:49:11;;;;;;;24.67;13.80;;;10.10;97.60;;;;;;5001992;28;20719;-69
2022/03/16 12:51:38;;;;;;;24.35;14.52;;;10.50;97.10;;;;;;5011334;28;20143;-68
2022/03/16 12:54:08;;;;;;;21.40;13.77;;;10.70;96.80;;;;;;5010192;28;20053;-68
2022/03/16 12:56:39;;;;;;;22.48;14.18;;;11.10;96.50;;;;;;5009620;28;20025;-68
2022/03/16 12:59:05;;;;;;;22.17;14.00;;;11.60;95.70;;;;;;5033098;28;20052;-69
2022/03/16 13:01:31;;;;;;;24.70;14.90;;;11.90;94.80;;;;;;5005873;28;20075;-69
2022/03/16 13:04:01;;;;;;;20.37;13.47;;;11.90;94.00;;;;;;5010222;28;20030;-68
2022/03/16 13:06:33;;;;;;;20.73;14.07;;;12.10;93.80;;;;;;5007811;28;20044;-68
2022/03/16 13:09:02;;;;;;;19.95;13.63;;;12.40;94.50;;;;;;5007766;28;20030;-67